sensor_id;sensor_type;location;lat;lon;timestamp;P1;durP1;ratioP1;P2;durP2;ratioP2
43311;SDS011;30041;48.300;16.352;2024-02-26T00:01:39;1.58;;;0.80;;
43311;SDS011;30041;48.300;16.352;2024-02-26T00:04:06;1.92;;;1.00;;
43311;SDS011;30041;48.300;16.352;2024-02-26T00:06:31;1.98;;;1.00;;
43311;SDS011;30041;48.300;16.352;2024-02-26T00:08:57;1.08;;;0.70;;
43311;SDS011;30041;48.300;16.352;2024-02-26T00:11:23;1.98;;;0.85;;
43311;SDS011;30041;48.300;16.352;2024-02-26T00:13:49;1.65;;;0.85;;
43311;SDS011;30041;48.300;16.352;2024-02-26T00:16:15;1.30;;;0.70;;
43311;SDS011;30041;48.300;16.352;2024-02-26T00:18:41;1.95;;;0.90;;
43311;SDS011;30041;48.300;16.352;2024-02-26T00:21:07;2.08;;;0.70;;
43311;SDS011;30041;48.300;16.352;2024-02-26T00:23:33;0.98;;;0.65;;
43311;SDS011;30041;48.300;16.352;2024-02-26T00:25:59;1.45;;;0.80;;
43311;SDS011;30041;48.300;16.352;2024-02-26T00:28:25;1.17;;;0.80;;
43311;SDS011;30041;48.300;16.352;2024-02-26T00:30:51;2.15;;;0.90;;
43311;SDS011;30041;48.300;16.352;2024-02-26T00:33:17;2.17;;;0.98;;
43311;SDS011;30041;48.300;16.352;2024-02-26T00:35:43;1.55;;;0.88;;
43311;SDS011;30041;48.300;16.352;2024-02-26T00:38:09;1.40;;;0.90;;
43311;SDS011;30041;48.300;16.352;2024-02-26T00:40:34;1.45;;;0.70;;
43311;SDS011;30041;48.300;16.352;2024-02-26T00:43:00;1.63;;;0.95;;
43311;SDS011;30041;48.300;16.352;2024-02-26T00:45:27;0.80;;;0.50;;
43311;SDS011;30041;48.300;16.352;2024-02-26T00:47:53;2.00;;;0.85;;
43311;SDS011;30041;48.300;16.352;2024-02-26T00:50:19;1.88;;;0.90;;
43311;SDS011;30041;48.300;16.352;2024-02-26T00:52:45;1.40;;;0.80;;
43311;SDS011;30041;48.300;16.352;2024-02-26T00:55:11;2.25;;;1.00;;
43311;SDS011;30041;48.300;16.352;2024-02-26T00:57:37;1.60;;;0.90;;
43311;SDS011;30041;48.300;16.352;2024-02-26T01:00:03;1.45;;;0.80;;
43311;SDS011;30041;48.300;16.352;2024-02-26T01:02:29;1.10;;;0.82;;
43311;SDS011;30041;48.300;16.352;2024-02-26T01:04:55;1.27;;;0.75;;
43311;SDS011;30041;48.300;16.352;2024-02-26T01:07:21;1.85;;;0.88;;
43311;SDS011;30041;48.300;16.352;2024-02-26T01:09:47;2.95;;;0.95;;
43311;SDS011;30041;48.300;16.352;2024-02-26T01:12:13;1.63;;;1.00;;
43311;SDS011;30041;48.300;16.352;2024-02-26T01:14:39;1.58;;;0.73;;
43311;SDS011;30041;48.300;16.352;2024-02-26T01:17:04;1.05;;;0.70;;
43311;SDS011;30041;48.300;16.352;2024-02-26T01:19:30;1.60;;;1.00;;
43311;SDS011;30041;48.300;16.352;2024-02-26T01:21:56;1.10;;;0.70;;
43311;SDS011;30041;48.300;16.352;2024-02-26T01:24:22;1.58;;;0.85;;
43311;SDS011;30041;48.300;16.352;2024-02-26T01:26:48;1.25;;;0.73;;
43311;SDS011;30041;48.300;16.352;2024-02-26T01:29:14;0.88;;;0.60;;
43311;SDS011;30041;48.300;16.352;2024-02-26T01:31:40;2.15;;;0.80;;
43311;SDS011;30041;48.300;16.352;2024-02-26T01:34:06;1.17;;;0.50;;
43311;SDS011;30041;48.300;16.352;2024-02-26T01:36:32;1.30;;;0.90;;
43311;SDS011;30041;48.300;16.352;2024-02-26T01:38:58;1.60;;;0.80;;
43311;SDS011;30041;48.300;16.352;2024-02-26T01:41:23;1.75;;;0.82;;
43311;SDS011;30041;48.300;16.352;2024-02-26T01:43:49;0.98;;;0.70;;
43311;SDS011;30041;48.300;16.352;2024-02-26T01:46:15;1.13;;;0.80;;
43311;SDS011;30041;48.300;16.352;2024-02-26T01:48:43;1.08;;;0.70;;
43311;SDS011;30041;48.300;16.352;2024-02-26T01:51:11;1.42;;;0.90;;
43311;SDS011;30041;48.300;16.352;2024-02-26T01:53:39;1.65;;;0.80;;
43311;SDS011;30041;48.300;16.352;2024-02-26T01:56:06;2.20;;;0.80;;
43311;SDS011;30041;48.300;16.352;2024-02-26T01:58:33;1.80;;;0.90;;
43311;SDS011;30041;48.300;16.352;2024-02-26T02:01:00;1.33;;;0.80;;
43311;SDS011;30041;48.300;16.352;2024-02-26T02:03:27;0.88;;;0.55;;
43311;SDS011;30041;48.300;16.352;2024-02-26T02:05:55;1.77;;;0.88;;
43311;SDS011;30041;48.300;16.352;2024-02-26T02:08:21;1.08;;;0.60;;
43311;SDS011;30041;48.300;16.352;2024-02-26T02:10:49;1.20;;;0.80;;
43311;SDS011;30041;48.300;16.352;2024-02-26T02:13:15;1.10;;;0.80;;
43311;SDS011;30041;48.300;16.352;2024-02-26T02:15:41;0.82;;;0.50;;
43311;SDS011;30041;48.300;16.352;2024-02-26T02:18:07;1.35;;;0.73;;
43311;SDS011;30041;48.300;16.352;2024-02-26T02:20:33;1.33;;;0.70;;
43311;SDS011;30041;48.300;16.352;2024-02-26T02:23:01;1.95;;;0.90;;
43311;SDS011;30041;48.300;16.352;2024-02-26T02:25:27;1.65;;;0.70;;
43311;SDS011;30041;48.300;16.352;2024-02-26T02:27:53;1.50;;;0.80;;
43311;SDS011;30041;48.300;16.352;2024-02-26T02:30:27;1.15;;;0.70;;
43311;SDS011;30041;48.300;16.352;2024-02-26T02:32:55;0.90;;;0.70;;
43311;SDS011;30041;48.300;16.352;2024-02-26T02:35:22;1.17;;;0.70;;
43311;SDS011;30041;48.300;16.352;2024-02-26T02:37:50;1.20;;;0.50;;
43311;SDS011;30041;48.300;16.352;2024-02-26T02:40:20;1.38;;;0.80;;
43311;SDS011;30041;48.300;16.352;2024-02-26T02:42:46;1.20;;;0.63;;
43311;SDS011;30041;48.300;16.352;2024-02-26T02:45:11;0.60;;;0.60;;
43311;SDS011;30041;48.300;16.352;2024-02-26T02:47:37;1.30;;;0.75;;
43311;SDS011;30041;48.300;16.352;2024-02-26T02:50:03;1.15;;;0.80;;
43311;SDS011;30041;48.300;16.352;2024-02-26T02:52:30;1.00;;;0.70;;
43311;SDS011;30041;48.300;16.352;2024-02-26T02:54:56;1.80;;;0.77;;
43311;SDS011;30041;48.300;16.352;2024-02-26T02:57:22;1.83;;;0.90;;
43311;SDS011;30041;48.300;16.352;2024-02-26T02:59:48;1.30;;;0.77;;
43311;SDS011;30041;48.300;16.352;2024-02-26T03:02:14;1.17;;;0.90;;
43311;SDS011;30041;48.300;16.352;2024-02-26T03:04:40;1.08;;;0.68;;
43311;SDS011;30041;48.300;16.352;2024-02-26T03:07:05;0.98;;;0.80;;
43311;SDS011;30041;48.300;16.352;2024-02-26T03:09:31;1.30;;;0.80;;
43311;SDS011;30041;48.300;16.352;2024-02-26T03:11:57;1.20;;;0.75;;
43311;SDS011;30041;48.300;16.352;2024-02-26T03:14:26;1.30;;;0.90;;
43311;SDS011;30041;48.300;16.352;2024-02-26T03:16:55;1.83;;;0.90;;
43311;SDS011;30041;48.300;16.352;2024-02-26T03:19:21;1.27;;;0.80;;
43311;SDS011;30041;48.300;16.352;2024-02-26T03:21:47;1.13;;;0.80;;
43311;SDS011;30041;48.300;16.352;2024-02-26T03:24:13;1.63;;;0.80;;
43311;SDS011;30041;48.300;16.352;2024-02-26T03:26:38;1.13;;;0.68;;
43311;SDS011;30041;48.300;16.352;2024-02-26T03:29:04;1.33;;;0.70;;
43311;SDS011;30041;48.300;16.352;2024-02-26T03:31:30;1.50;;;0.90;;
43311;SDS011;30041;48.300;16.352;2024-02-26T03:33:56;1.40;;;0.77;;
43311;SDS011;30041;48.300;16.352;2024-02-26T03:36:22;1.67;;;0.90;;
43311;SDS011;30041;48.300;16.352;2024-02-26T03:38:48;1.52;;;0.80;;
43311;SDS011;30041;48.300;16.352;2024-02-26T03:41:14;1.17;;;0.77;;
43311;SDS011;30041;48.300;16.352;2024-02-26T03:43:40;1.38;;;0.85;;
43311;SDS011;30041;48.300;16.352;2024-02-26T03:46:09;1.13;;;0.70;;
43311;SDS011;30041;48.300;16.352;2024-02-26T03:48:35;1.20;;;0.77;;
43311;SDS011;30041;48.300;16.352;2024-02-26T03:51:01;1.42;;;0.80;;
43311;SDS011;30041;48.300;16.352;2024-02-26T03:53:27;1.75;;;0.90;;
43311;SDS011;30041;48.300;16.352;2024-02-26T03:55:53;1.48;;;0.88;;
43311;SDS011;30041;48.300;16.352;2024-02-26T03:58:19;1.60;;;0.90;;
43311;SDS011;30041;48.300;16.352;2024-02-26T04:00:45;0.98;;;0.68;;
43311;SDS011;30041;48.300;16.352;2024-02-26T04:03:11;1.17;;;0.75;;
43311;SDS011;30041;48.300;16.352;2024-02-26T04:05:37;1.48;;;0.85;;
43311;SDS011;30041;48.300;16.352;2024-02-26T04:08:03;1.63;;;0.80;;
43311;SDS011;30041;48.300;16.352;2024-02-26T04:10:30;1.60;;;0.82;;
43311;SDS011;30041;48.300;16.352;2024-02-26T04:12:56;0.88;;;0.70;;
43311;SDS011;30041;48.300;16.352;2024-02-26T04:15:22;1.20;;;0.68;;
43311;SDS011;30041;48.300;16.352;2024-02-26T04:17:48;1.38;;;0.90;;
43311;SDS011;30041;48.300;16.352;2024-02-26T04:20:15;0.80;;;0.60;;
43311;SDS011;30041;48.300;16.352;2024-02-26T04:22:41;1.40;;;0.90;;
43311;SDS011;30041;48.300;16.352;2024-02-26T04:25:07;1.08;;;0.80;;
43311;SDS011;30041;48.300;16.352;2024-02-26T04:27:33;1.10;;;0.60;;
43311;SDS011;30041;48.300;16.352;2024-02-26T04:29:59;1.60;;;0.73;;
43311;SDS011;30041;48.300;16.352;2024-02-26T04:32:25;1.15;;;0.80;;
43311;SDS011;30041;48.300;16.352;2024-02-26T04:34:50;1.27;;;0.75;;
43311;SDS011;30041;48.300;16.352;2024-02-26T04:37:19;1.77;;;0.93;;
43311;SDS011;30041;48.300;16.352;2024-02-26T04:39:45;1.10;;;0.63;;
43311;SDS011;30041;48.300;16.352;2024-02-26T04:42:11;1.00;;;0.70;;
43311;SDS011;30041;48.300;16.352;2024-02-26T04:44:37;1.02;;;0.73;;
43311;SDS011;30041;48.300;16.352;2024-02-26T04:47:03;1.30;;;0.80;;
43311;SDS011;30041;48.300;16.352;2024-02-26T04:49:29;1.15;;;0.68;;
43311;SDS011;30041;48.300;16.352;2024-02-26T04:51:55;0.90;;;0.60;;
43311;SDS011;30041;48.300;16.352;2024-02-26T04:54:20;1.15;;;0.80;;
43311;SDS011;30041;48.300;16.352;2024-02-26T04:56:47;0.95;;;0.68;;
43311;SDS011;30041;48.300;16.352;2024-02-26T04:59:13;1.58;;;0.90;;
43311;SDS011;30041;48.300;16.352;2024-02-26T05:01:39;1.00;;;0.75;;
43311;SDS011;30041;48.300;16.352;2024-02-26T05:04:05;1.65;;;0.95;;
43311;SDS011;30041;48.300;16.352;2024-02-26T05:06:31;1.30;;;0.68;;
43311;SDS011;30041;48.300;16.352;2024-02-26T05:08:57;1.25;;;0.82;;
43311;SDS011;30041;48.300;16.352;2024-02-26T05:11:23;0.90;;;0.73;;
43311;SDS011;30041;48.300;16.352;2024-02-26T05:13:49;1.25;;;0.73;;
43311;SDS011;30041;48.300;16.352;2024-02-26T05:16:15;0.77;;;0.60;;
43311;SDS011;30041;48.300;16.352;2024-02-26T05:18:41;1.13;;;0.70;;
43311;SDS011;30041;48.300;16.352;2024-02-26T05:21:07;1.10;;;0.80;;
43311;SDS011;30041;48.300;16.352;2024-02-26T05:23:33;1.42;;;1.00;;
43311;SDS011;30041;48.300;16.352;2024-02-26T05:25:59;1.30;;;0.80;;
43311;SDS011;30041;48.300;16.352;2024-02-26T05:28:24;1.05;;;0.80;;
43311;SDS011;30041;48.300;16.352;2024-02-26T05:30:51;1.55;;;0.98;;
43311;SDS011;30041;48.300;16.352;2024-02-26T05:33:17;2.35;;;0.60;;
43311;SDS011;30041;48.300;16.352;2024-02-26T05:35:42;1.20;;;0.77;;
43311;SDS011;30041;48.300;16.352;2024-02-26T05:38:08;1.40;;;0.80;;
43311;SDS011;30041;48.300;16.352;2024-02-26T05:40:34;1.13;;;0.85;;
43311;SDS011;30041;48.300;16.352;2024-02-26T05:43:00;1.10;;;0.60;;
43311;SDS011;30041;48.300;16.352;2024-02-26T05:45:26;0.77;;;0.50;;
43311;SDS011;30041;48.300;16.352;2024-02-26T05:47:52;1.40;;;0.90;;
43311;SDS011;30041;48.300;16.352;2024-02-26T05:50:18;1.38;;;0.88;;
43311;SDS011;30041;48.300;16.352;2024-02-26T05:52:44;0.80;;;0.60;;
43311;SDS011;30041;48.300;16.352;2024-02-26T05:55:10;1.42;;;0.70;;
43311;SDS011;30041;48.300;16.352;2024-02-26T05:57:36;1.45;;;0.70;;
43311;SDS011;30041;48.300;16.352;2024-02-26T06:00:02;1.10;;;0.60;;
43311;SDS011;30041;48.300;16.352;2024-02-26T06:02:36;1.08;;;0.70;;
43311;SDS011;30041;48.300;16.352;2024-02-26T06:05:02;1.65;;;0.90;;
43311;SDS011;30041;48.300;16.352;2024-02-26T06:07:29;1.05;;;0.70;;
43311;SDS011;30041;48.300;16.352;2024-02-26T06:09:54;0.80;;;0.65;;
43311;SDS011;30041;48.300;16.352;2024-02-26T06:12:20;1.60;;;0.85;;
43311;SDS011;30041;48.300;16.352;2024-02-26T06:14:46;2.47;;;0.80;;
43311;SDS011;30041;48.300;16.352;2024-02-26T06:17:12;1.58;;;0.95;;
43311;SDS011;30041;48.300;16.352;2024-02-26T06:19:38;1.50;;;0.80;;
43311;SDS011;30041;48.300;16.352;2024-02-26T06:22:04;2.58;;;0.90;;
43311;SDS011;30041;48.300;16.352;2024-02-26T06:24:30;1.55;;;0.88;;
43311;SDS011;30041;48.300;16.352;2024-02-26T06:26:56;1.95;;;1.00;;
43311;SDS011;30041;48.300;16.352;2024-02-26T06:29:22;1.75;;;0.88;;
43311;SDS011;30041;48.300;16.352;2024-02-26T06:31:48;3.83;;;1.10;;
43311;SDS011;30041;48.300;16.352;2024-02-26T06:34:13;2.65;;;1.08;;
43311;SDS011;30041;48.300;16.352;2024-02-26T06:36:39;5.30;;;1.30;;
43311;SDS011;30041;48.300;16.352;2024-02-26T06:39:05;4.13;;;1.10;;
43311;SDS011;30041;48.300;16.352;2024-02-26T06:41:31;3.22;;;1.38;;
43311;SDS011;30041;48.300;16.352;2024-02-26T06:43:57;7.20;;;1.55;;
43311;SDS011;30041;48.300;16.352;2024-02-26T06:46:22;8.73;;;1.70;;
43311;SDS011;30041;48.300;16.352;2024-02-26T06:48:49;5.95;;;2.00;;
43311;SDS011;30041;48.300;16.352;2024-02-26T06:51:15;9.98;;;4.38;;
43311;SDS011;30041;48.300;16.352;2024-02-26T06:53:40;7.05;;;2.60;;
43311;SDS011;30041;48.300;16.352;2024-02-26T06:56:06;3.47;;;2.08;;
43311;SDS011;30041;48.300;16.352;2024-02-26T06:58:32;6.28;;;2.40;;
43311;SDS011;30041;48.300;16.352;2024-02-26T07:00:58;5.03;;;2.40;;
43311;SDS011;30041;48.300;16.352;2024-02-26T07:03:24;6.03;;;2.28;;
43311;SDS011;30041;48.300;16.352;2024-02-26T07:05:50;4.95;;;2.38;;
43311;SDS011;30041;48.300;16.352;2024-02-26T07:08:16;5.88;;;2.20;;
43311;SDS011;30041;48.300;16.352;2024-02-26T07:10:41;3.55;;;1.80;;
43311;SDS011;30041;48.300;16.352;2024-02-26T07:13:10;5.28;;;1.60;;
43311;SDS011;30041;48.300;16.352;2024-02-26T07:15:36;3.95;;;1.70;;
43311;SDS011;30041;48.300;16.352;2024-02-26T07:18:02;3.10;;;1.60;;
43311;SDS011;30041;48.300;16.352;2024-02-26T07:20:27;3.60;;;1.60;;
43311;SDS011;30041;48.300;16.352;2024-02-26T07:22:54;3.75;;;1.80;;
43311;SDS011;30041;48.300;16.352;2024-02-26T07:25:20;4.30;;;1.70;;
43311;SDS011;30041;48.300;16.352;2024-02-26T07:27:45;3.65;;;1.83;;
43311;SDS011;30041;48.300;16.352;2024-02-26T07:30:12;3.58;;;1.50;;
43311;SDS011;30041;48.300;16.352;2024-02-26T07:32:38;2.70;;;1.50;;
43311;SDS011;30041;48.300;16.352;2024-02-26T07:35:04;2.63;;;1.27;;
43311;SDS011;30041;48.300;16.352;2024-02-26T07:37:30;2.15;;;1.20;;
43311;SDS011;30041;48.300;16.352;2024-02-26T07:39:56;4.13;;;1.50;;
43311;SDS011;30041;48.300;16.352;2024-02-26T07:42:22;4.25;;;1.42;;
43311;SDS011;30041;48.300;16.352;2024-02-26T07:44:48;2.83;;;1.58;;
43311;SDS011;30041;48.300;16.352;2024-02-26T07:47:15;3.72;;;1.45;;
43311;SDS011;30041;48.300;16.352;2024-02-26T07:49:42;3.95;;;1.50;;
43311;SDS011;30041;48.300;16.352;2024-02-26T07:52:08;3.45;;;1.92;;
43311;SDS011;30041;48.300;16.352;2024-02-26T07:54:33;2.47;;;1.70;;
43311;SDS011;30041;48.300;16.352;2024-02-26T07:56:59;2.78;;;1.60;;
43311;SDS011;30041;48.300;16.352;2024-02-26T07:59:26;2.75;;;1.50;;
43311;SDS011;30041;48.300;16.352;2024-02-26T08:01:52;4.63;;;1.83;;
43311;SDS011;30041;48.300;16.352;2024-02-26T08:04:18;3.00;;;1.58;;
43311;SDS011;30041;48.300;16.352;2024-02-26T08:06:44;4.65;;;1.92;;
43311;SDS011;30041;48.300;16.352;2024-02-26T08:09:10;3.97;;;2.00;;
43311;SDS011;30041;48.300;16.352;2024-02-26T08:11:36;2.92;;;1.92;;
43311;SDS011;30041;48.300;16.352;2024-02-26T08:14:02;3.45;;;1.88;;
43311;SDS011;30041;48.300;16.352;2024-02-26T08:16:28;4.43;;;2.45;;
43311;SDS011;30041;48.300;16.352;2024-02-26T08:18:54;3.63;;;2.20;;
43311;SDS011;30041;48.300;16.352;2024-02-26T08:21:20;4.65;;;2.28;;
43311;SDS011;30041;48.300;16.352;2024-02-26T08:23:46;4.55;;;2.17;;
43311;SDS011;30041;48.300;16.352;2024-02-26T08:26:12;3.25;;;2.10;;
43311;SDS011;30041;48.300;16.352;2024-02-26T08:28:38;4.68;;;2.00;;
43311;SDS011;30041;48.300;16.352;2024-02-26T08:31:04;3.75;;;2.28;;
43311;SDS011;30041;48.300;16.352;2024-02-26T08:33:30;5.63;;;2.13;;
43311;SDS011;30041;48.300;16.352;2024-02-26T08:35:56;3.45;;;1.90;;
43311;SDS011;30041;48.300;16.352;2024-02-26T08:38:22;3.80;;;2.05;;
43311;SDS011;30041;48.300;16.352;2024-02-26T08:40:48;3.47;;;2.00;;
43311;SDS011;30041;48.300;16.352;2024-02-26T08:43:14;3.85;;;1.90;;
43311;SDS011;30041;48.300;16.352;2024-02-26T08:45:41;9.70;;;2.17;;
43311;SDS011;30041;48.300;16.352;2024-02-26T08:48:08;16.20;;;2.33;;
43311;SDS011;30041;48.300;16.352;2024-02-26T08:50:35;9.57;;;2.10;;
43311;SDS011;30041;48.300;16.352;2024-02-26T08:53:00;9.50;;;2.28;;
43311;SDS011;30041;48.300;16.352;2024-02-26T08:55:28;7.07;;;1.98;;
43311;SDS011;30041;48.300;16.352;2024-02-26T08:57:54;3.92;;;1.88;;
43311;SDS011;30041;48.300;16.352;2024-02-26T09:00:20;4.25;;;2.13;;
43311;SDS011;30041;48.300;16.352;2024-02-26T09:02:47;2.78;;;1.83;;
43311;SDS011;30041;48.300;16.352;2024-02-26T09:05:13;5.40;;;2.13;;
43311;SDS011;30041;48.300;16.352;2024-02-26T09:07:40;3.53;;;1.98;;
43311;SDS011;30041;48.300;16.352;2024-02-26T09:10:07;4.80;;;1.90;;
43311;SDS011;30041;48.300;16.352;2024-02-26T09:12:34;5.10;;;1.90;;
43311;SDS011;30041;48.300;16.352;2024-02-26T09:15:00;2.22;;;1.70;;
43311;SDS011;30041;48.300;16.352;2024-02-26T09:17:27;4.45;;;1.67;;
43311;SDS011;30041;48.300;16.352;2024-02-26T09:19:53;2.35;;;1.60;;
43311;SDS011;30041;48.300;16.352;2024-02-26T09:22:20;3.67;;;1.77;;
43311;SDS011;30041;48.300;16.352;2024-02-26T09:24:46;4.75;;;1.90;;
43311;SDS011;30041;48.300;16.352;2024-02-26T09:27:13;4.22;;;1.90;;
43311;SDS011;30041;48.300;16.352;2024-02-26T09:29:40;7.10;;;2.00;;
43311;SDS011;30041;48.300;16.352;2024-02-26T09:32:07;2.72;;;1.50;;
43311;SDS011;30041;48.300;16.352;2024-02-26T09:34:33;4.03;;;1.80;;
43311;SDS011;30041;48.300;16.352;2024-02-26T09:37:00;3.88;;;1.60;;
43311;SDS011;30041;48.300;16.352;2024-02-26T09:39:27;2.70;;;1.88;;
43311;SDS011;30041;48.300;16.352;2024-02-26T09:41:55;4.93;;;1.80;;
43311;SDS011;30041;48.300;16.352;2024-02-26T09:44:22;2.67;;;1.77;;
43311;SDS011;30041;48.300;16.352;2024-02-26T09:46:50;3.17;;;1.55;;
43311;SDS011;30041;48.300;16.352;2024-02-26T09:49:19;2.65;;;1.52;;
43311;SDS011;30041;48.300;16.352;2024-02-26T09:51:48;3.08;;;1.80;;
43311;SDS011;30041;48.300;16.352;2024-02-26T09:54:16;2.92;;;1.75;;
43311;SDS011;30041;48.300;16.352;2024-02-26T09:56:43;1.88;;;1.20;;
43311;SDS011;30041;48.300;16.352;2024-02-26T09:59:16;3.85;;;1.83;;
43311;SDS011;30041;48.300;16.352;2024-02-26T10:01:45;3.47;;;1.42;;
43311;SDS011;30041;48.300;16.352;2024-02-26T10:04:13;3.40;;;2.00;;
43311;SDS011;30041;48.300;16.352;2024-02-26T10:06:41;3.40;;;1.73;;
43311;SDS011;30041;48.300;16.352;2024-02-26T10:09:09;3.60;;;1.80;;
43311;SDS011;30041;48.300;16.352;2024-02-26T10:11:36;1.88;;;1.40;;
43311;SDS011;30041;48.300;16.352;2024-02-26T10:14:05;4.80;;;1.60;;
43311;SDS011;30041;48.300;16.352;2024-02-26T10:16:32;2.80;;;1.48;;
43311;SDS011;30041;48.300;16.352;2024-02-26T10:18:59;5.55;;;1.60;;
43311;SDS011;30041;48.300;16.352;2024-02-26T10:21:25;3.35;;;1.65;;
43311;SDS011;30041;48.300;16.352;2024-02-26T10:23:52;4.28;;;1.52;;
43311;SDS011;30041;48.300;16.352;2024-02-26T10:26:18;2.58;;;1.38;;
43311;SDS011;30041;48.300;16.352;2024-02-26T10:28:45;2.95;;;1.40;;
43311;SDS011;30041;48.300;16.352;2024-02-26T10:31:13;2.53;;;1.40;;
43311;SDS011;30041;48.300;16.352;2024-02-26T10:33:39;3.60;;;1.42;;
43311;SDS011;30041;48.300;16.352;2024-02-26T10:36:07;3.00;;;1.42;;
43311;SDS011;30041;48.300;16.352;2024-02-26T10:38:34;2.13;;;1.35;;
43311;SDS011;30041;48.300;16.352;2024-02-26T10:41:02;4.35;;;1.30;;
43311;SDS011;30041;48.300;16.352;2024-02-26T10:43:31;3.28;;;1.35;;
43311;SDS011;30041;48.300;16.352;2024-02-26T10:45:58;3.70;;;1.50;;
43311;SDS011;30041;48.300;16.352;2024-02-26T10:48:24;4.75;;;1.55;;
43311;SDS011;30041;48.300;16.352;2024-02-26T10:50:50;10.65;;;2.58;;
43311;SDS011;30041;48.300;16.352;2024-02-26T10:53:17;6.47;;;1.80;;
43311;SDS011;30041;48.300;16.352;2024-02-26T10:55:47;5.25;;;1.60;;
43311;SDS011;30041;48.300;16.352;2024-02-26T10:58:22;5.43;;;1.92;;
43311;SDS011;30041;48.300;16.352;2024-02-26T11:00:49;5.03;;;1.60;;
43311;SDS011;30041;48.300;16.352;2024-02-26T11:03:16;6.03;;;1.63;;
43311;SDS011;30041;48.300;16.352;2024-02-26T11:05:44;4.78;;;1.40;;
43311;SDS011;30041;48.300;16.352;2024-02-26T11:08:11;2.65;;;1.35;;
43311;SDS011;30041;48.300;16.352;2024-02-26T11:10:37;5.03;;;1.45;;
43311;SDS011;30041;48.300;16.352;2024-02-26T11:13:05;3.85;;;1.50;;
43311;SDS011;30041;48.300;16.352;2024-02-26T11:15:33;2.60;;;1.27;;
43311;SDS011;30041;48.300;16.352;2024-02-26T11:18:00;7.22;;;1.50;;
43311;SDS011;30041;48.300;16.352;2024-02-26T11:20:30;3.85;;;1.30;;
43311;SDS011;30041;48.300;16.352;2024-02-26T11:22:57;2.92;;;1.30;;
43311;SDS011;30041;48.300;16.352;2024-02-26T11:25:23;3.80;;;1.45;;
43311;SDS011;30041;48.300;16.352;2024-02-26T11:27:56;4.50;;;1.50;;
43311;SDS011;30041;48.300;16.352;2024-02-26T11:30:29;4.05;;;1.50;;
43311;SDS011;30041;48.300;16.352;2024-02-26T11:32:58;5.38;;;1.65;;
43311;SDS011;30041;48.300;16.352;2024-02-26T11:35:25;4.57;;;1.60;;
43311;SDS011;30041;48.300;16.352;2024-02-26T11:37:52;2.13;;;1.17;;
43311;SDS011;30041;48.300;16.352;2024-02-26T11:40:19;3.50;;;1.40;;
43311;SDS011;30041;48.300;16.352;2024-02-26T11:42:45;2.97;;;1.40;;
43311;SDS011;30041;48.300;16.352;2024-02-26T11:48:05;3.45;;;1.30;;
43311;SDS011;30041;48.300;16.352;2024-02-26T11:50:40;3.30;;;1.50;;
43311;SDS011;30041;48.300;16.352;2024-02-26T11:53:29;5.25;;;1.45;;
43311;SDS011;30041;48.300;16.352;2024-02-26T11:58:44;2.58;;;1.35;;
43311;SDS011;30041;48.300;16.352;2024-02-26T12:04:17;2.55;;;1.15;;
43311;SDS011;30041;48.300;16.352;2024-02-26T12:06:47;3.08;;;1.35;;
43311;SDS011;30041;48.300;16.352;2024-02-26T12:09:32;4.47;;;1.25;;
43311;SDS011;30041;48.300;16.352;2024-02-26T12:12:01;3.13;;;1.25;;
43311;SDS011;30041;48.300;16.352;2024-02-26T12:14:28;3.47;;;1.13;;
43311;SDS011;30041;48.300;16.352;2024-02-26T12:16:55;3.85;;;1.40;;
43311;SDS011;30041;48.300;16.352;2024-02-26T12:19:21;2.75;;;1.30;;
43311;SDS011;30041;48.300;16.352;2024-02-26T12:21:50;3.03;;;1.67;;
43311;SDS011;30041;48.300;16.352;2024-02-26T12:24:18;2.58;;;1.15;;
43311;SDS011;30041;48.300;16.352;2024-02-26T12:26:44;4.20;;;1.30;;
43311;SDS011;30041;48.300;16.352;2024-02-26T12:29:10;3.75;;;1.40;;
43311;SDS011;30041;48.300;16.352;2024-02-26T12:31:36;3.00;;;1.40;;
43311;SDS011;30041;48.300;16.352;2024-02-26T12:34:03;2.35;;;1.25;;
43311;SDS011;30041;48.300;16.352;2024-02-26T12:36:29;2.80;;;1.20;;
43311;SDS011;30041;48.300;16.352;2024-02-26T12:38:55;3.47;;;1.20;;
43311;SDS011;30041;48.300;16.352;2024-02-26T12:41:22;4.75;;;1.27;;
43311;SDS011;30041;48.300;16.352;2024-02-26T12:43:48;2.55;;;1.10;;
43311;SDS011;30041;48.300;16.352;2024-02-26T12:46:14;2.92;;;1.40;;
43311;SDS011;30041;48.300;16.352;2024-02-26T12:48:42;5.80;;;1.20;;
43311;SDS011;30041;48.300;16.352;2024-02-26T12:51:09;2.85;;;1.20;;
43311;SDS011;30041;48.300;16.352;2024-02-26T12:53:35;2.97;;;1.30;;
43311;SDS011;30041;48.300;16.352;2024-02-26T12:56:03;2.45;;;1.33;;
43311;SDS011;30041;48.300;16.352;2024-02-26T12:58:29;3.17;;;1.30;;
43311;SDS011;30041;48.300;16.352;2024-02-26T13:00:57;2.25;;;1.30;;
43311;SDS011;30041;48.300;16.352;2024-02-26T13:03:23;2.28;;;1.05;;
43311;SDS011;30041;48.300;16.352;2024-02-26T13:05:49;3.08;;;1.10;;
43311;SDS011;30041;48.300;16.352;2024-02-26T13:08:22;3.05;;;1.50;;
43311;SDS011;30041;48.300;16.352;2024-02-26T13:10:48;3.40;;;1.20;;
43311;SDS011;30041;48.300;16.352;2024-02-26T13:13:14;2.35;;;1.13;;
43311;SDS011;30041;48.300;16.352;2024-02-26T13:15:40;2.13;;;1.23;;
43311;SDS011;30041;48.300;16.352;2024-02-26T13:18:10;2.28;;;1.20;;
43311;SDS011;30041;48.300;16.352;2024-02-26T13:20:36;3.88;;;1.15;;
43311;SDS011;30041;48.300;16.352;2024-02-26T13:23:06;2.65;;;1.20;;
43311;SDS011;30041;48.300;16.352;2024-02-26T13:25:33;2.15;;;1.00;;
43311;SDS011;30041;48.300;16.352;2024-02-26T13:28:16;2.17;;;1.20;;
43311;SDS011;30041;48.300;16.352;2024-02-26T13:30:52;2.20;;;1.05;;
43311;SDS011;30041;48.300;16.352;2024-02-26T13:33:21;1.95;;;1.10;;
43311;SDS011;30041;48.300;16.352;2024-02-26T13:35:48;3.90;;;1.35;;
43311;SDS011;30041;48.300;16.352;2024-02-26T13:38:14;2.60;;;1.20;;
43311;SDS011;30041;48.300;16.352;2024-02-26T13:40:40;1.50;;;1.10;;
43311;SDS011;30041;48.300;16.352;2024-02-26T13:43:06;3.50;;;1.20;;
43311;SDS011;30041;48.300;16.352;2024-02-26T13:45:34;2.58;;;0.98;;
43311;SDS011;30041;48.300;16.352;2024-02-26T13:48:04;1.38;;;0.90;;
43311;SDS011;30041;48.300;16.352;2024-02-26T13:50:31;3.05;;;1.10;;
43311;SDS011;30041;48.300;16.352;2024-02-26T13:52:57;1.65;;;0.90;;
43311;SDS011;30041;48.300;16.352;2024-02-26T13:55:23;2.50;;;1.30;;
43311;SDS011;30041;48.300;16.352;2024-02-26T13:57:50;1.63;;;1.00;;
43311;SDS011;30041;48.300;16.352;2024-02-26T14:00:16;2.40;;;1.00;;
43311;SDS011;30041;48.300;16.352;2024-02-26T14:02:43;2.80;;;1.10;;
43311;SDS011;30041;48.300;16.352;2024-02-26T14:05:09;1.67;;;1.08;;
43311;SDS011;30041;48.300;16.352;2024-02-26T14:07:35;2.35;;;1.10;;
43311;SDS011;30041;48.300;16.352;2024-02-26T14:10:01;2.65;;;1.10;;
43311;SDS011;30041;48.300;16.352;2024-02-26T14:12:28;2.65;;;1.15;;
43311;SDS011;30041;48.300;16.352;2024-02-26T14:14:55;3.45;;;1.10;;
43311;SDS011;30041;48.300;16.352;2024-02-26T14:17:21;2.55;;;1.00;;
43311;SDS011;30041;48.300;16.352;2024-02-26T14:19:47;3.50;;;1.00;;
43311;SDS011;30041;48.300;16.352;2024-02-26T14:22:14;2.58;;;1.17;;
43311;SDS011;30041;48.300;16.352;2024-02-26T14:24:40;4.30;;;1.10;;
43311;SDS011;30041;48.300;16.352;2024-02-26T14:27:09;1.92;;;1.13;;
43311;SDS011;30041;48.300;16.352;2024-02-26T14:29:38;1.90;;;1.10;;
43311;SDS011;30041;48.300;16.352;2024-02-26T14:32:05;2.42;;;1.00;;
43311;SDS011;30041;48.300;16.352;2024-02-26T14:34:32;6.05;;;1.00;;
43311;SDS011;30041;48.300;16.352;2024-02-26T14:36:59;3.13;;;1.10;;
43311;SDS011;30041;48.300;16.352;2024-02-26T14:39:25;4.03;;;1.20;;